Terminal Aerodrome Forecast
Issued by NWS

Home | Current Version | Previous Version | Text Only | Print | Product List | Glossary On
Versions: 1 2 3 4 5 6 7 8 9 10 11 12 13 14 15
000
FTAK31 PANC 232153 AAA
TAFAVD
TAF AMD
PAVD 232153Z 2322/2418 10008KT P6SM BKN090
      TEMPO 2322/2402 12012G20KT
     FM240800 06010G22KT P6SM SCT100 BKN150
      AMD LTD TO CLD VIS AND WIND=

USA.gov is the U.S. government's official web portal to all federal, state and local government web resources and services.